Time;durP1;ratioP1;P1;durP2;ratioP2;P2;SDS_P1;SDS_P2;PMS_P1;PMS_P2;Temp;Humidity;BMP_temperature;BMP_pressure;BME280_temperature;BME280_humidity;BME280_pressure;Samples;Min_cycle;Max_cycle;Signal;HPM_P1;HPM_P2
2023/04/14 00:00:12;;;;;;;;;;;;;;;;;;4993080;28;19940;-82
2023/04/14 00:02:39;;;;;;;;;;;;;;;;;;4981057;28;20016;-83
2023/04/14 00:05:07;;;;;;;;;;;;;;;;;;4996265;28;19941;-83
2023/04/14 00:07:35;;;;;;;;;;;;;;;;;;4981071;28;19937;-83
2023/04/14 00:10:02;;;;;;;;;;;;;;;;;;4981559;28;19929;-80
2023/04/14 00:12:30;;;;;;;;;;;;;;;;;;4981147;28;19933;-80
2023/04/14 00:14:57;;;;;;;;;;;;;;;;;;5007602;28;19933;-84
2023/04/14 00:17:30;;;;;;;;;;;;;;;;;;5005905;28;19929;-83
2023/04/14 00:19:57;;;;;;;;;;;;;;;;;;4992964;28;19933;-83
2023/04/14 00:22:30;;;;;;;;;;;;;;;;;;5011355;28;19926;-83
2023/04/14 00:24:57;;;;;;;;;;;;;;;;;;4994165;28;20494;-81
2023/04/14 00:27:25;;;;;;;;;;;;;;;;;;4995953;28;19937;-80
2023/04/14 00:29:52;;;;;;;;;;;;;;;;;;5001010;28;19933;-81
2023/04/14 00:32:20;;;;;;;;;;;;;;;;;;4994296;28;19926;-81
2023/04/14 00:34:47;;;;;;;;;;;;;;;;;;5007102;28;19930;-80
2023/04/14 00:37:15;;;;;;;;;;;;;;;;;;5012199;28;19933;-83
2023/04/14 00:39:43;;;;;;;;;;;;;;;;;;5010177;28;19945;-83
2023/04/14 00:42:10;;;;;;;;;;;;;;;;;;5023474;28;19925;-84
2023/04/14 00:44:37;;;;;;;;;;;;;;;;;;4994208;28;20387;-83
2023/04/14 00:47:10;;;;;;;;;;;;;;;;;;4996172;28;19926;-84
2023/04/14 00:49:37;;;;;;;;;;;;;;;;;;4993222;28;19933;-83
2023/04/14 00:52:05;;;;;;;;;;;;;;;;;;4991491;28;19926;-84
2023/04/14 00:54:32;;;;;;;;;;;;;;;;;;5011245;28;20271;-81
2023/04/14 00:57:06;;;;;;;;;;;;;;;;;;4990757;28;19933;-80
2023/04/14 00:59:34;;;;;;;;;;;;;;;;;;4993964;28;20382;-80
2023/04/14 01:02:06;;;;;;;;;;;;;;;;;;5010982;28;20294;-79
2023/04/14 01:04:34;;;;;;;;;;;;;;;;;;4996430;28;20286;-81
2023/04/14 01:07:02;;;;;;;;;;;;;;;;;;5013747;28;19933;-80
2023/04/14 01:09:36;;;;;;;;;;;;;;;;;;5012370;28;20581;-81
2023/04/14 01:12:08;;;;;;;;;;;;;;;;;;5004397;28;19926;-81
2023/04/14 01:14:36;;;;;;;;;;;;;;;;;;4995048;28;19930;-81
2023/04/14 01:17:03;;;;;;;;;;;;;;;;;;5010702;28;19926;-81
2023/04/14 01:19:31;;;;;;;;;;;;;;;;;;5011797;28;19930;-81
2023/04/14 01:21:58;;;;;;;;;;;;;;;;;;5007109;28;19929;-81
2023/04/14 01:24:31;;;;;;;;;;;;;;;;;;4991132;28;20395;-80
2023/04/14 01:26:58;;;;;;;;;;;;;;;;;;4999826;28;19949;-80
2023/04/14 01:29:31;;;;;;;;;;;;;;;;;;5011138;28;20282;-80
2023/04/14 01:31:59;;;;;;;;;;;;;;;;;;5007878;28;19926;-79
2023/04/14 01:34:27;;;;;;;;;;;;;;;;;;5004738;28;19933;-80
2023/04/14 01:36:59;;;;;;;;;;;;;;;;;;5001328;28;19926;-81
2023/04/14 01:39:32;;;;;;;;;;;;;;;;;;5010349;28;19930;-81
2023/04/14 01:42:00;;;;;;;;;;;;;;;;;;5003724;28;19933;-81
2023/04/14 01:44:29;;;;;;;;;;;;;;;;;;5010892;28;19925;-82
2023/04/14 01:46:57;;;;;;;;;;;;;;;;;;5011319;28;20417;-82
2023/04/14 01:49:24;;;;;;;;;;;;;;;;;;5010769;28;19933;-82
2023/04/14 01:51:52;;;;;;;;;;;;;;;;;;5013870;28;19933;-82
2023/04/14 01:54:24;;;;;;;;;;;;;;;;;;4994011;28;19926;-82
2023/04/14 01:56:52;;;;;;;;;;;;;;;;;;5013588;28;20279;-82
2023/04/14 01:59:24;;;;;;;;;;;;;;;;;;5010923;28;20409;-82
2023/04/14 02:01:58;;;;;;;;;;;;;;;;;;4993847;28;20379;-82
2023/04/14 02:04:26;;;;;;;;;;;;;;;;;;4993836;28;20433;-82
2023/04/14 02:06:53;;;;;;;;;;;;;;;;;;4996349;28;19930;-81
2023/04/14 02:09:21;;;;;;;;;;;;;;;;;;5010500;28;19925;-81
2023/04/14 02:11:49;;;;;;;;;;;;;;;;;;4993832;28;19953;-81
2023/04/14 02:14:16;;;;;;;;;;;;;;;;;;4988804;28;19930;-81
2023/04/14 02:16:44;;;;;;;;;;;;;;;;;;4995606;28;19929;-81
2023/04/14 02:19:13;;;;;;;;;;;;;;;;;;4993994;28;19925;-81
2023/04/14 02:21:45;;;;;;;;;;;;;;;;;;5012040;28;19930;-82
2023/04/14 02:24:13;;;;;;;;;;;;;;;;;;4993884;28;19937;-82
2023/04/14 02:26:40;;;;;;;;;;;;;;;;;;4995266;28;19932;-82
2023/04/14 02:29:08;;;;;;;;;;;;;;;;;;4995827;28;20383;-81
2023/04/14 02:31:40;;;;;;;;;;;;;;;;;;5010316;28;20295;-81
2023/04/14 02:34:08;;;;;;;;;;;;;;;;;;4994045;28;19926;-82
2023/04/14 02:36:35;;;;;;;;;;;;;;;;;;5012304;28;19926;-80
2023/04/14 02:39:03;;;;;;;;;;;;;;;;;;4993294;28;19937;-80
2023/04/14 02:41:35;;;;;;;;;;;;;;;;;;4994875;28;19933;-80
2023/04/14 02:44:03;;;;;;;;;;;;;;;;;;4995387;28;19937;-80
2023/04/14 02:46:31;;;;;;;;;;;;;;;;;;5007600;28;19925;-80
2023/04/14 02:48:58;;;;;;;;;;;;;;;;;;4992954;28;20826;-81
2023/04/14 02:51:26;;;;;;;;;;;;;;;;;;4993949;28;19926;-79
2023/04/14 02:53:56;;;;;;;;;;;;;;;;;;5008953;28;19925;-80
2023/04/14 02:56:36;;;;;;;;;;;;;;;;;;5012714;28;20401;-80
2023/04/14 02:59:03;;;;;;;;;;;;;;;;;;5003745;28;19945;-80
2023/04/14 03:01:32;;;;;;;;;;;;;;;;;;5011518;28;19930;-80
2023/04/14 03:04:05;;;;;;;;;;;;;;;;;;4995488;28;20386;-81
2023/04/14 03:06:33;;;;;;;;;;;;;;;;;;5000868;28;19930;-80
2023/04/14 03:09:01;;;;;;;;;;;;;;;;;;5008573;28;19925;-80
2023/04/14 03:11:34;;;;;;;;;;;;;;;;;;5000509;28;19933;-80
2023/04/14 03:14:01;;;;;;;;;;;;;;;;;;5008903;28;20383;-80
2023/04/14 03:16:29;;;;;;;;;;;;;;;;;;4987895;28;19938;-80
2023/04/14 03:18:57;;;;;;;;;;;;;;;;;;5009638;28;19929;-80
2023/04/14 03:21:25;;;;;;;;;;;;;;;;;;4999870;28;19930;-80
2023/04/14 03:23:54;;;;;;;;;;;;;;;;;;5008496;28;19952;-80
2023/04/14 03:26:27;;;;;;;;;;;;;;;;;;4989495;28;19930;-80
2023/04/14 03:28:54;;;;;;;;;;;;;;;;;;4994588;28;19937;-79
2023/04/14 03:31:22;;;;;;;;;;;;;;;;;;4995328;28;20761;-79
2023/04/14 03:33:54;;;;;;;;;;;;;;;;;;4993432;28;19926;-80
2023/04/14 03:36:32;;;;;;;;;;;;;;;;;;4991737;28;19937;-80
2023/04/14 03:39:05;;;;;;;;;;;;;;;;;;4991825;28;19933;-80
2023/04/14 03:41:37;;;;;;;;;;;;;;;;;;4991601;28;19926;-80
2023/04/14 03:44:05;;;;;;;;;;;;;;;;;;4993280;28;19930;-79
2023/04/14 03:46:33;;;;;;;;;;;;;;;;;;5008133;28;19930;-80
2023/04/14 03:49:02;;;;;;;;;;;;;;;;;;4992607;28;19933;-80
2023/04/14 03:51:29;;;;;;;;;;;;;;;;;;5008392;28;19933;-79
2023/04/14 03:53:59;;;;;;;;;;;;;;;;;;5007834;28;19937;-80
2023/04/14 03:56:27;;;;;;;;;;;;;;;;;;5007802;28;20409;-81
2023/04/14 03:58:55;;;;;;;;;;;;;;;;;;4995166;28;19930;-80
2023/04/14 04:01:29;;;;;;;;;;;;;;;;;;5008995;28;19925;-81
2023/04/14 04:03:57;;;;;;;;;;;;;;;;;;5009039;28;20310;-80
2023/04/14 04:06:24;;;;;;;;;;;;;;;;;;5008919;28;19926;-80
2023/04/14 04:08:52;;;;;;;;;;;;;;;;;;5008486;28;19929;-80
2023/04/14 04:11:19;;;;;;;;;;;;;;;;;;4991574;28;19926;-81
2023/04/14 04:13:49;;;;;;;;;;;;;;;;;;5006453;28;19929;-80
2023/04/14 04:16:17;;;;;;;;;;;;;;;;;;4993560;28;19926;-80
2023/04/14 04:18:49;;;;;;;;;;;;;;;;;;5001443;28;19925;-80
2023/04/14 04:21:22;;;;;;;;;;;;;;;;;;5007470;28;19929;-80
2023/04/14 04:23:53;;;;;;;;;;;;;;;;;;5007900;28;20346;-80
2023/04/14 04:26:22;;;;;;;;;;;;;;;;;;4997573;28;19926;-81
2023/04/14 04:28:50;;;;;;;;;;;;;;;;;;4990078;28;19926;-80
2023/04/14 04:31:17;;;;;;;;;;;;;;;;;;4991990;28;20286;-81
2023/04/14 04:33:46;;;;;;;;;;;;;;;;;;5008407;28;19929;-80
2023/04/14 04:36:14;;;;;;;;;;;;;;;;;;4997416;28;19968;-80
2023/04/14 04:38:48;;;;;;;;;;;;;;;;;;5014575;28;19967;-80
2023/04/14 04:41:21;;;;;;;;;;;;;;;;;;4996279;28;19933;-80
2023/04/14 04:43:49;;;;;;;;;;;;;;;;;;5016242;28;20383;-80
2023/04/14 04:46:16;;;;;;;;;;;;;;;;;;5011534;28;19933;-79
2023/04/14 04:48:44;;;;;;;;;;;;;;;;;;4990261;28;19933;-79
2023/04/14 04:51:11;;;;;;;;;;;;;;;;;;4995580;28;19926;-78
2023/04/14 04:53:39;;;;;;;;;;;;;;;;;;4995395;28;19926;-79
2023/04/14 04:56:07;;;;;;;;;;;;;;;;;;4987599;28;19930;-78
2023/04/14 04:58:34;;;;;;;;;;;;;;;;;;4996134;28;19933;-79
2023/04/14 05:01:02;;;;;;;;;;;;;;;;;;4996903;28;19955;-79
2023/04/14 05:03:30;;;;;;;;;;;;;;;;;;4993021;28;19926;-78
2023/04/14 05:05:57;;;;;;;;;;;;;;;;;;4995194;28;19937;-78
2023/04/14 05:08:25;;;;;;;;;;;;;;;;;;4997202;28;19933;-79
2023/04/14 05:10:52;;;;;;;;;;;;;;;;;;4994392;28;19926;-78
2023/04/14 05:13:21;;;;;;;;;;;;;;;;;;4994032;28;19929;-78
2023/04/14 05:15:48;;;;;;;;;;;;;;;;;;4986918;28;19933;-80
2023/04/14 05:18:16;;;;;;;;;;;;;;;;;;4995152;28;19937;-79
2023/04/14 05:20:43;;;;;;;;;;;;;;;;;;4996166;28;19930;-78
2023/04/14 05:23:16;;;;;;;;;;;;;;;;;;4995467;28;19930;-79
2023/04/14 05:25:43;;;;;;;;;;;;;;;;;;4995208;28;19930;-80
2023/04/14 05:28:12;;;;;;;;;;;;;;;;;;5007770;28;19933;-78
2023/04/14 05:30:45;;;;;;;;;;;;;;;;;;5010282;28;19938;-79
2023/04/14 05:33:13;;;;;;;;;;;;;;;;;;5011011;28;19926;-78
2023/04/14 05:35:40;;;;;;;;;;;;;;;;;;4987773;28;19930;-79
2023/04/14 05:38:13;;;;;;;;;;;;;;;;;;4984658;28;20006;-79
2023/04/14 05:40:40;;;;;;;;;;;;;;;;;;5007778;28;19934;-79
2023/04/14 05:43:09;;;;;;;;;;;;;;;;;;4994140;28;19934;-79
2023/04/14 05:45:36;;;;;;;;;;;;;;;;;;4992270;28;20696;-79
2023/04/14 05:48:04;;;;;;;;;;;;;;;;;;4995196;28;19925;-79
2023/04/14 05:50:32;;;;;;;;;;;;;;;;;;4994833;28;19933;-78
2023/04/14 05:53:02;;;;;;;;;;;;;;;;;;4991613;28;22209;-79
2023/04/14 05:55:29;;;;;;;;;;;;;;;;;;4994447;28;19926;-79
2023/04/14 05:57:57;;;;;;;;;;;;;;;;;;4986952;28;19930;-79
2023/04/14 06:00:29;;;;;;;;;;;;;;;;;;4996337;28;19926;-78
2023/04/14 06:02:57;;;;;;;;;;;;;;;;;;5008095;28;19929;-80
2023/04/14 06:05:24;;;;;;;;;;;;;;;;;;5006727;28;19930;-79
2023/04/14 06:07:54;;;;;;;;;;;;;;;;;;5008390;28;19926;-79
2023/04/14 06:10:21;;;;;;;;;;;;;;;;;;4993701;28;19926;-79
2023/04/14 06:12:49;;;;;;;;;;;;;;;;;;4993196;28;19937;-80
2023/04/14 06:15:17;;;;;;;;;;;;;;;;;;5006874;28;19933;-81
2023/04/14 06:17:46;;;;;;;;;;;;;;;;;;5003967;28;19949;-79
2023/04/14 06:20:20;;;;;;;;;;;;;;;;;;4994993;28;19930;-79
2023/04/14 06:22:48;;;;;;;;;;;;;;;;;;5008987;28;19926;-80
2023/04/14 06:25:15;;;;;;;;;;;;;;;;;;5005479;28;19926;-80
2023/04/14 06:27:43;;;;;;;;;;;;;;;;;;4993638;28;19933;-79
2023/04/14 06:30:10;;;;;;;;;;;;;;;;;;5007446;28;20382;-83
2023/04/14 06:32:38;;;;;;;;;;;;;;;;;;4990217;28;19933;-80
2023/04/14 06:35:05;;;;;;;;;;;;;;;;;;4990362;28;19925;-79
2023/04/14 06:37:33;;;;;;;;;;;;;;;;;;4992678;28;19926;-79
2023/04/14 06:40:00;;;;;;;;;;;;;;;;;;4991535;28;19926;-79
2023/04/14 06:42:28;;;;;;;;;;;;;;;;;;5007593;28;20322;-80
2023/04/14 06:44:56;;;;;;;;;;;;;;;;;;4994957;28;20586;-79
2023/04/14 06:47:24;;;;;;;;;;;;;;;;;;5006996;28;19949;-79
2023/04/14 06:49:51;;;;;;;;;;;;;;;;;;4993485;28;20278;-80
2023/04/14 06:52:19;;;;;;;;;;;;;;;;;;4992743;28;19937;-78
2023/04/14 06:54:46;;;;;;;;;;;;;;;;;;5008530;28;19926;-80
2023/04/14 06:57:14;;;;;;;;;;;;;;;;;;4990677;28;19929;-80
2023/04/14 06:59:42;;;;;;;;;;;;;;;;;;5002572;28;19934;-80
2023/04/14 07:02:09;;;;;;;;;;;;;;;;;;4980937;28;19934;-79
2023/04/14 07:04:37;;;;;;;;;;;;;;;;;;4995146;28;19933;-82
2023/04/14 07:07:04;;;;;;;;;;;;;;;;;;4993912;28;19929;-83
2023/04/14 07:09:32;;;;;;;;;;;;;;;;;;4993125;28;21484;-81
2023/04/14 07:12:04;;;;;;;;;;;;;;;;;;4980451;28;20301;-80
2023/04/14 07:14:32;;;;;;;;;;;;;;;;;;4981619;28;20096;-80
2023/04/14 07:17:00;;;;;;;;;;;;;;;;;;4986504;28;19933;-80
2023/04/14 07:19:32;;;;;;;;;;;;;;;;;;4999943;28;19941;-81
2023/04/14 07:22:00;;;;;;;;;;;;;;;;;;4996550;28;19952;-81
2023/04/14 07:24:33;;;;;;;;;;;;;;;;;;4992597;28;19945;-80
2023/04/14 07:27:00;;;;;;;;;;;;;;;;;;4977623;28;19941;-80
2023/04/14 07:29:28;;;;;;;;;;;;;;;;;;4984714;28;19940;-83
2023/04/14 07:31:55;;;;;;;;;;;;;;;;;;4982316;28;19934;-81
2023/04/14 07:34:28;;;;;;;;;;;;;;;;;;4996993;28;19933;-82
2023/04/14 07:36:55;;;;;;;;;;;;;;;;;;4994336;28;20813;-82
2023/04/14 07:39:28;;;;;;;;;;;;;;;;;;4989193;28;20349;-82
2023/04/14 07:41:57;;;;;;;;;;;;;;;;;;5000066;28;20475;-81
2023/04/14 07:44:25;;;;;;;;;;;;;;;;;;5006583;28;20286;-81
2023/04/14 07:46:52;;;;;;;;;;;;;;;;;;5000846;28;19934;-82
2023/04/14 07:49:20;;;;;;;;;;;;;;;;;;5001037;28;19934;-81
2023/04/14 07:51:48;;;;;;;;;;;;;;;;;;5002631;28;19933;-80
2023/04/14 07:54:15;;;;;;;;;;;;;;;;;;5005115;28;19933;-83
2023/04/14 07:56:47;;;;;;;;;;;;;;;;;;5013323;28;19909;-81
2023/04/14 07:59:16;;;;;;;;;;;;;;;;;;4995535;28;20462;-82
2023/04/14 08:01:49;;;;;;;;;;;;;;;;;;4960641;28;20418;-82
2023/04/14 08:04:17;;;;;;;;;;;;;;;;;;4971669;28;19926;-82
2023/04/14 08:06:48;;;;;;;;;;;;;;;;;;4971893;28;19933;-82
2023/04/14 08:09:20;;;;;;;;;;;;;;;;;;4988436;28;20405;-83
2023/04/14 08:11:53;;;;;;;;;;;;;;;;;;4982721;28;19945;-84
2023/04/14 08:14:20;;;;;;;;;;;;;;;;;;4967068;28;19934;-82
2023/04/14 08:16:48;;;;;;;;;;;;;;;;;;4969040;28;19940;-82
2023/04/14 08:19:15;;;;;;;;;;;;;;;;;;4966641;28;19949;-84
2023/04/14 08:21:48;;;;;;;;;;;;;;;;;;4983796;28;20444;-84
2023/04/14 08:24:20;;;;;;;;;;;;;;;;;;4988654;28;19930;-82
2023/04/14 08:26:48;;;;;;;;;;;;;;;;;;4972312;28;19940;-84
2023/04/14 08:29:21;;;;;;;;;;;;;;;;;;4985784;28;19934;-83
2023/04/14 08:31:48;;;;;;;;;;;;;;;;;;4968435;28;19944;-84
2023/04/14 08:34:21;;;;;;;;;;;;;;;;;;4989017;28;19941;-83
2023/04/14 08:36:49;;;;;;;;;;;;;;;;;;4969988;28;19933;-84
2023/04/14 08:39:16;;;;;;;;;;;;;;;;;;4990520;28;19925;-85
2023/04/14 08:41:44;;;;;;;;;;;;;;;;;;4973212;28;19941;-83
2023/04/14 08:44:16;;;;;;;;;;;;;;;;;;4968499;28;19925;-84
2023/04/14 08:46:44;;;;;;;;;;;;;;;;;;4972340;28;19941;-82
2023/04/14 08:49:11;;;;;;;;;;;;;;;;;;4984052;28;19934;-82
2023/04/14 08:51:39;;;;;;;;;;;;;;;;;;4986163;28;19934;-83
2023/04/14 08:54:12;;;;;;;;;;;;;;;;;;4964033;28;19934;-84
2023/04/14 08:56:40;;;;;;;;;;;;;;;;;;4986066;28;19934;-83
2023/04/14 08:59:07;;;;;;;;;;;;;;;;;;4988237;28;19944;-83
2023/04/14 09:01:40;;;;;;;;;;;;;;;;;;4969853;28;19930;-83
2023/04/14 09:04:12;;;;;;;;;;;;;;;;;;4972585;28;19933;-81
2023/04/14 09:06:45;;;;;;;;;;;;;;;;;;4983792;28;19948;-81
2023/04/14 09:09:12;;;;;;;;;;;;;;;;;;4975137;28;20318;-82
2023/04/14 09:11:45;;;;;;;;;;;;;;;;;;4973168;28;20355;-84
2023/04/14 09:14:13;;;;;;;;;;;;;;;;;;4976647;28;19933;-83
2023/04/14 09:16:47;;;;;;;;;;;;;;;;;;4973469;28;19950;-81
2023/04/14 09:19:20;;;;;;;;;;;;;;;;;;4974730;28;21246;-82
2023/04/14 09:21:47;;;;;;;;;;;;;;;;;;4973413;28;19944;-81
2023/04/14 09:24:22;;;;;;;;;;;;;;;;;;4976849;28;19960;-82
2023/04/14 09:26:50;;;;;;;;;;;;;;;;;;4971238;28;19934;-84
2023/04/14 09:29:17;;;;;;;;;;;;;;;;;;4974143;28;19934;-82
2023/04/14 09:31:50;;;;;;;;;;;;;;;;;;4983745;28;19930;-84
2023/04/14 09:34:17;;;;;;;;;;;;;;;;;;4975257;28;19944;-83
2023/04/14 09:36:45;;;;;;;;;;;;;;;;;;4977097;28;19941;-85
2023/04/14 09:39:12;;;;;;;;;;;;;;;;;;4970969;28;19933;-84
2023/04/14 09:41:40;;;;;;;;;;;;;;;;;;4975611;28;19934;-83
2023/04/14 09:44:13;;;;;;;;;;;;;;;;;;4984921;28;19941;-82
2023/04/14 09:46:45;;;;;;;;;;;;;;;;;;4990289;28;19941;-84
2023/04/14 09:49:13;;;;;;;;;;;;;;;;;;4996367;28;19933;-85
2023/04/14 09:51:41;;;;;;;;;;;;;;;;;;4991568;28;20425;-84
2023/04/14 09:54:13;;;;;;;;;;;;;;;;;;4991106;28;19944;-83
2023/04/14 09:56:46;;;;;;;;;;;;;;;;;;4971885;28;19934;-82
2023/04/14 09:59:13;;;;;;;;;;;;;;;;;;4963180;28;19940;-81
2023/04/14 10:01:41;;;;;;;;;;;;;;;;;;4987183;28;19933;-82
2023/04/14 10:04:08;;;;;;;;;;;;;;;;;;4988950;28;19933;-82
2023/04/14 10:06:41;;;;;;;;;;;;;;;;;;4975967;28;19941;-84
2023/04/14 10:09:13;;;;;;;;;;;;;;;;;;4977767;28;19941;-83
2023/04/14 10:11:46;;;;;;;;;;;;;;;;;;4969588;28;19934;-81
2023/04/14 10:14:19;;;;;;;;;;;;;;;;;;4982253;28;19933;-84
2023/04/14 10:16:51;;;;;;;;;;;;;;;;;;4984481;28;19933;-84
2023/04/14 10:19:20;;;;;;;;;;;;;;;;;;4987783;28;19934;-84
2023/04/14 10:21:53;;;;;;;;;;;;;;;;;;4972987;28;20298;-81
2023/04/14 10:24:25;;;;;;;;;;;;;;;;;;4973856;28;20445;-81
2023/04/14 10:26:58;;;;;;;;;;;;;;;;;;4973084;28;20398;-82
2023/04/14 10:29:25;;;;;;;;;;;;;;;;;;4992866;28;20417;-83
2023/04/14 10:31:59;;;;;;;;;;;;;;;;;;4971587;28;20491;-84
2023/04/14 10:34:26;;;;;;;;;;;;;;;;;;4986422;28;19930;-84
2023/04/14 10:36:59;;;;;;;;;;;;;;;;;;4989952;28;20491;-84
2023/04/14 10:39:32;;;;;;;;;;;;;;;;;;4974558;28;19941;-84
2023/04/14 10:42:00;;;;;;;;;;;;;;;;;;4988014;28;19940;-81
2023/04/14 10:44:33;;;;;;;;;;;;;;;;;;4976347;28;19934;-84
2023/04/14 10:47:01;;;;;;;;;;;;;;;;;;4981411;28;20706;-81
2023/04/14 10:49:28;;;;;;;;;;;;;;;;;;4972822;28;19934;-82
2023/04/14 10:51:56;;;;;;;;;;;;;;;;;;4976067;28;20416;-83
2023/04/14 10:54:23;;;;;;;;;;;;;;;;;;4984723;28;20022;-81
2023/04/14 10:56:56;;;;;;;;;;;;;;;;;;4991664;28;19942;-82
2023/04/14 10:59:23;;;;;;;;;;;;;;;;;;4981724;28;19940;-81
2023/04/14 11:01:51;;;;;;;;;;;;;;;;;;4971522;28;19940;-82
2023/04/14 11:04:19;;;;;;;;;;;;;;;;;;4989924;28;19941;-84
2023/04/14 11:06:46;;;;;;;;;;;;;;;;;;4978567;28;19933;-86
2023/04/14 11:09:14;;;;;;;;;;;;;;;;;;4984627;28;19929;-82
2023/04/14 11:11:41;;;;;;;;;;;;;;;;;;4990848;28;20287;-82
2023/04/14 11:14:09;;;;;;;;;;;;;;;;;;4976846;28;19957;-83
2023/04/14 11:16:36;;;;;;;;;;;;;;;;;;4981200;28;19934;-84
2023/04/14 11:19:09;;;;;;;;;;;;;;;;;;4979602;28;19933;-82
2023/04/14 11:21:40;;;;;;;;;;;;;;;;;;4980895;28;19926;-83
2023/04/14 11:24:07;;;;;;;;;;;;;;;;;;4991286;28;19945;-84
2023/04/14 11:26:35;;;;;;;;;;;;;;;;;;4973804;28;19934;-82
2023/04/14 11:29:03;;;;;;;;;;;;;;;;;;4990971;28;19956;-83
2023/04/14 11:31:30;;;;;;;;;;;;;;;;;;4995457;28;20021;-83
2023/04/14 11:33:58;;;;;;;;;;;;;;;;;;4989593;28;19933;-84
2023/04/14 11:36:26;;;;;;;;;;;;;;;;;;4969967;28;20141;-83
2023/04/14 11:38:54;;;;;;;;;;;;;;;;;;4988620;28;19934;-85
2023/04/14 11:41:21;;;;;;;;;;;;;;;;;;4992363;28;21231;-84
2023/04/14 11:43:49;;;;;;;;;;;;;;;;;;4987685;28;19933;-82
2023/04/14 11:46:21;;;;;;;;;;;;;;;;;;4975539;28;19941;-82
2023/04/14 11:48:54;;;;;;;;;;;;;;;;;;4976979;28;19926;-83
2023/04/14 11:51:22;;;;;;;;;;;;;;;;;;4971351;28;19960;-81
2023/04/14 11:53:49;;;;;;;;;;;;;;;;;;4976395;28;19941;-82
2023/04/14 11:56:18;;;;;;;;;;;;;;;;;;4979355;28;19949;-80
2023/04/14 11:58:46;;;;;;;;;;;;;;;;;;4970499;28;21078;-83
2023/04/14 12:01:13;;;;;;;;;;;;;;;;;;4990435;28;20651;-80
2023/04/14 12:03:48;;;;;;;;;;;;;;;;;;4969796;28;20504;-84
2023/04/14 12:06:21;;;;;;;;;;;;;;;;;;4970895;28;19934;-81
2023/04/14 12:08:49;;;;;;;;;;;;;;;;;;4965849;28;19925;-81
2023/04/14 12:11:17;;;;;;;;;;;;;;;;;;4972128;28;19945;-82
2023/04/14 12:13:49;;;;;;;;;;;;;;;;;;4984515;28;19934;-83
2023/04/14 12:16:17;;;;;;;;;;;;;;;;;;4972969;28;20371;-83
2023/04/14 12:18:50;;;;;;;;;;;;;;;;;;4993291;28;20290;-86
2023/04/14 12:21:22;;;;;;;;;;;;;;;;;;4969981;28;19933;-80
2023/04/14 12:23:49;;;;;;;;;;;;;;;;;;4978459;28;20603;-81
2023/04/14 12:26:22;;;;;;;;;;;;;;;;;;4973284;28;20391;-80
2023/04/14 12:28:55;;;;;;;;;;;;;;;;;;4990156;28;19953;-82
2023/04/14 12:31:22;;;;;;;;;;;;;;;;;;4992382;28;19941;-81
2023/04/14 12:33:55;;;;;;;;;;;;;;;;;;4979926;28;19933;-80
2023/04/14 12:36:23;;;;;;;;;;;;;;;;;;4983201;28;19930;-80
2023/04/14 12:38:50;;;;;;;;;;;;;;;;;;4988557;28;19934;-82
2023/04/14 12:41:17;;;;;;;;;;;;;;;;;;4984821;28;19940;-84
2023/04/14 12:43:45;;;;;;;;;;;;;;;;;;4971801;28;19941;-82
2023/04/14 12:46:17;;;;;;;;;;;;;;;;;;4975292;28;19953;-80
2023/04/14 12:48:45;;;;;;;;;;;;;;;;;;4977142;28;19933;-83
2023/04/14 12:51:13;;;;;;;;;;;;;;;;;;4980400;28;20610;-85
2023/04/14 12:53:41;;;;;;;;;;;;;;;;;;4974200;28;19941;-84
2023/04/14 12:56:14;;;;;;;;;;;;;;;;;;4978789;28;19929;-80
2023/04/14 12:58:42;;;;;;;;;;;;;;;;;;4978422;28;21586;-80
2023/04/14 13:01:10;;;;;;;;;;;;;;;;;;4986131;28;19933;-83
2023/04/14 13:03:43;;;;;;;;;;;;;;;;;;4980184;28;19940;-84
2023/04/14 13:06:10;;;;;;;;;;;;;;;;;;4981643;28;19940;-84
2023/04/14 13:08:38;;;;;;;;;;;;;;;;;;4996992;28;19941;-81
2023/04/14 13:11:06;;;;;;;;;;;;;;;;;;4973973;28;19933;-82
2023/04/14 13:13:33;;;;;;;;;;;;;;;;;;4973496;28;19934;-80
2023/04/14 13:16:02;;;;;;;;;;;;;;;;;;4979994;28;19940;-80
2023/04/14 13:18:30;;;;;;;;;;;;;;;;;;4990641;28;20374;-81
2023/04/14 13:20:58;;;;;;;;;;;;;;;;;;4980866;28;19933;-81
2023/04/14 13:23:25;;;;;;;;;;;;;;;;;;4971037;28;19944;-79
2023/04/14 13:25:58;;;;;;;;;;;;;;;;;;4972755;28;19968;-81
2023/04/14 13:28:25;;;;;;;;;;;;;;;;;;4997615;28;19934;-81
2023/04/14 13:30:53;;;;;;;;;;;;;;;;;;4992180;28;20497;-83
2023/04/14 13:33:26;;;;;;;;;;;;;;;;;;4996739;28;19929;-80
2023/04/14 13:35:55;;;;;;;;;;;;;;;;;;4987203;28;21504;-80
2023/04/14 13:38:22;;;;;;;;;;;;;;;;;;4995000;28;19933;-83
2023/04/14 13:40:55;;;;;;;;;;;;;;;;;;4977238;28;19934;-82
2023/04/14 13:43:28;;;;;;;;;;;;;;;;;;4970583;28;19934;-81
2023/04/14 13:45:56;;;;;;;;;;;;;;;;;;4983689;28;19936;-81
2023/04/14 13:48:24;;;;;;;;;;;;;;;;;;4980800;28;20568;-80
2023/04/14 13:50:52;;;;;;;;;;;;;;;;;;4983079;28;19933;-83
2023/04/14 13:53:19;;;;;;;;;;;;;;;;;;4987982;28;19940;-81
2023/04/14 13:55:47;;;;;;;;;;;;;;;;;;4977280;28;20526;-83
2023/04/14 13:58:14;;;;;;;;;;;;;;;;;;4982138;28;20196;-83
2023/04/14 14:00:42;;;;;;;;;;;;;;;;;;4971306;28;20320;-80
2023/04/14 14:03:09;;;;;;;;;;;;;;;;;;4991539;28;19934;-80
2023/04/14 14:05:37;;;;;;;;;;;;;;;;;;4977538;28;19930;-79
2023/04/14 14:08:05;;;;;;;;;;;;;;;;;;4989612;28;19949;-81
2023/04/14 14:10:32;;;;;;;;;;;;;;;;;;4975258;28;21149;-80
2023/04/14 14:13:05;;;;;;;;;;;;;;;;;;4982312;28;20694;-81
2023/04/14 14:15:33;;;;;;;;;;;;;;;;;;4971369;28;19933;-82
2023/04/14 14:18:05;;;;;;;;;;;;;;;;;;4975019;28;20365;-81
2023/04/14 14:20:33;;;;;;;;;;;;;;;;;;4971029;28;19945;-80
2023/04/14 14:23:05;;;;;;;;;;;;;;;;;;4993303;28;19930;-82
2023/04/14 14:25:39;;;;;;;;;;;;;;;;;;4972329;28;19933;-83
2023/04/14 14:28:07;;;;;;;;;;;;;;;;;;4981579;28;19934;-80
2023/04/14 14:30:34;;;;;;;;;;;;;;;;;;4988153;28;19933;-82
2023/04/14 14:33:07;;;;;;;;;;;;;;;;;;4968167;28;19933;-80
2023/04/14 14:35:39;;;;;;;;;;;;;;;;;;4970626;28;20424;-83
2023/04/14 14:38:07;;;;;;;;;;;;;;;;;;4975399;28;20505;-83
2023/04/14 14:40:39;;;;;;;;;;;;;;;;;;4981350;28;19932;-81
2023/04/14 14:43:12;;;;;;;;;;;;;;;;;;4988041;28;19934;-83
2023/04/14 14:45:44;;;;;;;;;;;;;;;;;;4972910;28;20657;-82
2023/04/14 14:48:12;;;;;;;;;;;;;;;;;;4980166;28;20350;-82
2023/04/14 14:50:39;;;;;;;;;;;;;;;;;;4980004;28;19956;-80
2023/04/14 14:53:07;;;;;;;;;;;;;;;;;;4972674;28;20644;-85
2023/04/14 14:55:34;;;;;;;;;;;;;;;;;;4983320;28;20483;-82
2023/04/14 14:58:02;;;;;;;;;;;;;;;;;;4970605;28;19941;-84
2023/04/14 15:00:30;;;;;;;;;;;;;;;;;;4969814;28;19926;-82
2023/04/14 15:02:57;;;;;;;;;;;;;;;;;;4986708;28;19940;-84
2023/04/14 15:05:30;;;;;;;;;;;;;;;;;;4972573;28;19941;-84
2023/04/14 15:07:58;;;;;;;;;;;;;;;;;;4984776;28;19949;-82
2023/04/14 15:10:26;;;;;;;;;;;;;;;;;;4967822;28;19934;-84
2023/04/14 15:12:53;;;;;;;;;;;;;;;;;;4986965;28;19956;-81
2023/04/14 15:15:22;;;;;;;;;;;;;;;;;;4987685;28;19933;-83
2023/04/14 15:17:55;;;;;;;;;;;;;;;;;;4982947;28;19933;-83
2023/04/14 15:20:25;;;;;;;;;;;;;;;;;;4987156;28;19934;-82
2023/04/14 15:22:52;;;;;;;;;;;;;;;;;;4985300;28;19934;-83
2023/04/14 15:25:20;;;;;;;;;;;;;;;;;;4983952;28;19933;-83
2023/04/14 15:27:47;;;;;;;;;;;;;;;;;;4981294;28;21495;-83
2023/04/14 15:30:15;;;;;;;;;;;;;;;;;;4995688;28;19936;-81
2023/04/14 15:32:42;;;;;;;;;;;;;;;;;;4988829;28;19934;-86
2023/04/14 15:35:10;;;;;;;;;;;;;;;;;;4979078;28;20581;-84
2023/04/14 15:37:42;;;;;;;;;;;;;;;;;;4974108;28;19941;-81
2023/04/14 15:40:10;;;;;;;;;;;;;;;;;;4986789;28;19941;-83
2023/04/14 15:42:42;;;;;;;;;;;;;;;;;;4982730;28;19940;-82
2023/04/14 15:45:10;;;;;;;;;;;;;;;;;;4988879;28;19941;-82
2023/04/14 15:47:44;;;;;;;;;;;;;;;;;;4973950;28;21774;-82
2023/04/14 15:50:17;;;;;;;;;;;;;;;;;;4980848;28;19934;-81
2023/04/14 15:52:50;;;;;;;;;;;;;;;;;;4970974;28;19938;-86
2023/04/14 15:55:18;;;;;;;;;;;;;;;;;;4982196;28;19937;-87
2023/04/14 15:57:45;;;;;;;;;;;;;;;;;;4991309;28;19940;-84
2023/04/14 16:00:13;;;;;;;;;;;;;;;;;;4968832;28;19940;-83
2023/04/14 16:02:46;;;;;;;;;;;;;;;;;;4978925;28;20406;-83
2023/04/14 16:05:18;;;;;;;;;;;;;;;;;;4986124;28;19934;-82
2023/04/14 16:07:46;;;;;;;;;;;;;;;;;;4973387;28;19933;-84
2023/04/14 16:10:18;;;;;;;;;;;;;;;;;;4976468;28;19933;-83
2023/04/14 16:12:46;;;;;;;;;;;;;;;;;;4984764;28;20508;-83
2023/04/14 16:15:18;;;;;;;;;;;;;;;;;;4970974;28;19941;-84
2023/04/14 16:17:51;;;;;;;;;;;;;;;;;;4977193;28;19972;-85
2023/04/14 16:20:26;;;;;;;;;;;;;;;;;;4990131;28;19934;-80
2023/04/14 16:22:53;;;;;;;;;;;;;;;;;;4992636;28;20081;-82
2023/04/14 16:25:21;;;;;;;;;;;;;;;;;;4985196;28;19945;-82
2023/04/14 16:27:54;;;;;;;;;;;;;;;;;;4969299;28;19930;-82
2023/04/14 16:30:26;;;;;;;;;;;;;;;;;;4984273;28;19948;-84
2023/04/14 16:32:54;;;;;;;;;;;;;;;;;;4990979;28;20378;-82
2023/04/14 16:35:21;;;;;;;;;;;;;;;;;;4970327;28;19961;-83
2023/04/14 16:37:49;;;;;;;;;;;;;;;;;;4989185;28;19933;-84
2023/04/14 16:40:21;;;;;;;;;;;;;;;;;;4975156;28;19934;-84
2023/04/14 16:42:54;;;;;;;;;;;;;;;;;;4990714;28;19933;-82
2023/04/14 16:45:27;;;;;;;;;;;;;;;;;;4973228;28;20291;-81
2023/04/14 16:47:54;;;;;;;;;;;;;;;;;;4976306;28;20410;-88
2023/04/14 16:50:27;;;;;;;;;;;;;;;;;;4972733;28;19941;-82
2023/04/14 16:53:00;;;;;;;;;;;;;;;;;;4989920;28;19941;-83
2023/04/14 16:55:28;;;;;;;;;;;;;;;;;;4985701;28;19933;-83
2023/04/14 16:57:55;;;;;;;;;;;;;;;;;;4989691;28;19971;-81